ADDS METAR Data INFO
IDs: Format: Raw Decoded Include TAF

Data at: 1152 UTC 21 Jun 2018

K0VG 211135Z AUTO 00000KT 10SM 21/20 A2994 RMK AO2
K0VG 211115Z AUTO 00000KT 10SM 20/20 A2994 RMK AO2
K0VG 211035Z AUTO 00000KT 5SM BR FEW047 FEW060 20/20 A2993 RMK AO2
K0VG 211015Z AUTO 00000KT 6SM -RA SCT027 SCT034 BKN048 20/19 A2994 RMK AO2
K0VG 210955Z AUTO 00000KT 10SM BKN025 20/19 A2993 RMK AO2
K0VG 210935Z AUTO 00000KT 10SM OVC025 20/19 A2993 RMK AO2
K0VG 210915Z AUTO 00000KT 10SM OVC025 20/19 A2993 RMK AO2
K0VG 210855Z AUTO 00000KT 10SM OVC025 20/19 A2994 RMK AO2
K0VG 210835Z AUTO 00000KT 10SM BKN025 20/19 A2993 RMK AO2
K0VG 210815Z AUTO 00000KT 10SM SCT027 20/19 A2993 RMK AO2
K0VG 210755Z AUTO 00000KT 10SM FEW029 SCT041 BKN049 21/19 A2994 RMK AO2
K0VG 210735Z AUTO 00000KT 10SM FEW029 BKN043 OVC049 21/19 A2994 RMK AO2
K0VG 210715Z AUTO 00000KT 10SM FEW029 OVC046 21/19 A2995 RMK AO2
K0VG 210655Z AUTO 00000KT 10SM 21/19 A2995 RMK AO2
K0VG 210635Z AUTO 00000KT 10SM 20/19 A2996 RMK AO2
K0VG 210615Z AUTO 00000KT 10SM FEW017 FEW041 SCT110 20/19 A2996 RMK AO2
K0VG 210555Z AUTO 00000KT 10SM OVC110 21/19 A2996 RMK AO2
K0VG 210535Z AUTO 00000KT 10SM SCT036 BKN110 21/19 A2997 RMK AO2
K0VG 210515Z AUTO 00000KT 10SM FEW036 22/19 A2997 RMK AO2
K0VG 210455Z AUTO 00000KT 10SM CLR 23/19 A2997 RMK AO2
K0VG 210435Z AUTO 00000KT 10SM FEW016 22/19 A2997 RMK AO2
K0VG 210415Z AUTO 00000KT 10SM SCT016 SCT110 22/20 A2997 RMK AO2
K0VG 210355Z AUTO 00000KT 10SM SCT018 23/19 A2997 RMK AO2
K0VG 210335Z AUTO 00000KT 10SM SCT016 23/20 A2997 RMK AO2
K0VG 210315Z AUTO 00000KT 10SM 23/20 A2998 RMK AO2
K0VG 210255Z AUTO 00000KT 10SM CLR 24/20 A2997 RMK AO2
K0VG 210235Z AUTO 00000KT 10SM CLR 24/20 A2997 RMK AO2
K0VG 210215Z AUTO 00000KT 10SM FEW049 24/20 A2996 RMK AO2
K0VG 210155Z AUTO 00000KT 24/20 A2995 RMK AO2
K0VG 210135Z AUTO 00000KT 10SM FEW047 25/20 A2994 RMK AO2
K0VG 210115Z AUTO 00000KT 10SM FEW047 26/20 A2992 RMK AO2
K0VG 210055Z AUTO 00000KT 10SM CLR 27/20 A2991 RMK AO2
K0VG 210035Z AUTO 00000KT 10SM CLR 28/20 A2991 RMK AO2
K0VG 210015Z AUTO 27003KT 10SM CLR 28/20 A2991 RMK AO2
K0VG 202355Z AUTO 27003KT 10SM CLR 29/19 A2992 RMK AO2
K0VG 202335Z AUTO 28004KT 10SM CLR 29/19 A2992 RMK AO2
K0VG 202315Z AUTO 27003KT 10SM CLR 30/19 A2992 RMK AO2
K0VG 202255Z AUTO 24007KT 10SM CLR 30/19 A2992 RMK AO2
K0VG 202235Z AUTO 26006KT 10SM CLR 30/19 A2993 RMK AO2
K0VG 202215Z AUTO 25008KT 10SM FEW050 30/19 A2993 RMK AO2
K0VG 202155Z AUTO 26004KT 10SM FEW050 30/19 A2994 RMK AO2
K0VG 202135Z AUTO 24008KT 10SM CLR 30/19 A2994 RMK AO2
K0VG 202115Z AUTO 23008KT 10SM CLR 31/18 A2993 RMK AO2
K0VG 202055Z AUTO 25008KT 10SM CLR 32/18 A2994 RMK AO2
K0VG 202035Z AUTO 24009G16KT 020V020 10SM CLR 31/18 A2994 RMK AO2
K0VG 202015Z AUTO 23012G16KT 10SM CLR 32/18 A2995 RMK AO2
K0VG 201955Z AUTO 25004KT 10SM CLR 31/18 A2995 RMK AO2
K0VG 201935Z AUTO 26007KT 10SM CLR 31/18 A2996 RMK AO2
K0VG 201915Z AUTO 24006KT 10SM CLR 30/18 A2997 RMK AO2
K0VG 201855Z AUTO 00000KT 10SM 30/18 A2998 RMK AO2
K0VG 201815Z AUTO 23009KT 10SM CLR 30/19 A2999 RMK AO2
K0VG 201755Z AUTO 25004KT 10SM 29/19 A2999 RMK AO2
K0VG 201735Z AUTO 25004KT 10SM CLR 29/19 A3000 RMK AO2
K0VG 201715Z AUTO 00000KT 10SM CLR 29/19 A3000 RMK AO2
K0VG 201655Z AUTO 24005KT 10SM CLR 29/18 A3001 RMK AO2
K0VG 201635Z AUTO 32004KT 10SM FEW039 30/19 A3001 RMK AO2
K0VG 201615Z AUTO 26005KT 10SM FEW037 29/18 A3002 RMK AO2
K0VG 201555Z AUTO 27004KT 10SM CLR 29/18 A3002 RMK AO2
K0VG 201535Z AUTO 27004KT 10SM FEW034 29/18 A3003 RMK AO2
K0VG 201515Z AUTO 00000KT 10SM CLR 27/19 A3003 RMK AO2
K0VG 201455Z AUTO 00000KT 10SM CLR 27/20 A3004 RMK AO2
K0VG 201435Z AUTO 00000KT 10SM CLR 25/21 A3004 RMK AO2
K0VG 201415Z AUTO 00000KT 10SM CLR 24/21 A3004 RMK AO2
K0VG 201355Z AUTO 00000KT 10SM CLR 23/21 A3005 RMK AO2
K0VG 201335Z AUTO 00000KT 9SM CLR 22/21 A3005 RMK AO2
K0VG 201315Z AUTO 00000KT 9SM -RA CLR 22/20 A3005 RMK AO2
K0VG 201255Z AUTO 00000KT 10SM CLR 22/20 A3005 RMK AO2
K0VG 201235Z AUTO 00000KT 10SM CLR 22/20 A3004 RMK AO2
K0VG 201215Z AUTO 00000KT 9SM CLR 21/20 A3004 RMK AO2
K0VG 201155Z AUTO 00000KT 9SM CLR 20/19 A3004 RMK AO2
K0VG 201135Z AUTO 00000KT 7SM CLR 20/19 A3004 RMK AO2
K0VG 201115Z AUTO 00000KT 7SM CLR 20/19 A3004 RMK AO2
K0VG 201055Z AUTO 00000KT 8SM CLR 19/19 A3003 RMK AO2
K0VG 201035Z AUTO 00000KT 4SM BR CLR 19/19 A3003 RMK AO2
K0VG 201015Z AUTO 00000KT 1/4SM FG 19/19 A3002 RMK AO2
K0VG 200955Z AUTO 00000KT 1 1/2SM BR BKN002 19/19 A3003 RMK AO2 VSBY 1/2V5
K0VG 200935Z AUTO 00000KT 8SM 19/19 A3002 RMK AO2
K0VG 200915Z AUTO 00000KT 10SM CLR 19/19 A3002 RMK AO2
K0VG 200855Z AUTO 00000KT 8SM CLR 19/19 A3002 RMK AO2
K0VG 200835Z AUTO 00000KT 9SM CLR 19/19 A3002 RMK AO2
K0VG 200815Z AUTO 00000KT 10SM CLR 20/19 A3002 RMK AO2
K0VG 200755Z AUTO 00000KT 10SM CLR 20/19 A3002 RMK AO2
K0VG 200735Z AUTO 00000KT 10SM CLR 20/19 A3002 RMK AO2
K0VG 200715Z AUTO 00000KT 9SM CLR 20/19 A3003 RMK AO2
K0VG 200655Z AUTO 00000KT 10SM 20/20 A3003 RMK AO2
K0VG 200635Z AUTO 00000KT 10SM 20/20 A3003 RMK AO2
K0VG 200615Z AUTO 00000KT 9SM CLR 20/20 A3004 RMK AO2
K0VG 200555Z AUTO 00000KT 10SM CLR 20/20 A3004 RMK AO2
K0VG 200535Z AUTO 00000KT 10SM 22/20 A3004 RMK AO2
K0VG 200455Z AUTO 00000KT 10SM CLR 22/20 A3004 RMK AO2
K0VG 200435Z AUTO 00000KT 10SM CLR 22/20 A3004 RMK AO2
K0VG 200415Z AUTO 00000KT 10SM CLR 22/20 A3003 RMK AO2
K0VG 200355Z AUTO 00000KT 10SM CLR 23/20 A3003 RMK AO2
K0VG 200335Z AUTO 00000KT 10SM CLR 23/21 A3003 RMK AO2
K0VG 200315Z AUTO 00000KT 10SM 23/21 A3003 RMK AO2
K0VG 200255Z AUTO 00000KT 10SM CLR 24/21 A3004 RMK AO2
K0VG 200235Z AUTO 00000KT 10SM CLR 24/21 A3004 RMK AO2
K0VG 200215Z AUTO 00000KT 10SM CLR 25/21 A3003 RMK AO2
K0VG 200155Z AUTO 00000KT 27/20 A3002 RMK AO2
K0VG 200135Z AUTO 00000KT 10SM CLR 26/20 A3002 RMK AO2
K0VG 200115Z AUTO 00000KT 10SM CLR 27/20 A3001 RMK AO2
K0VG 200055Z AUTO 00000KT 10SM CLR 28/20 A3001 RMK AO2
K0VG 200035Z AUTO 28003KT 10SM CLR 28/20 A3001 RMK AO2
K0VG 200015Z AUTO 00000KT 10SM CLR 29/20 A3001 RMK AO2
K0VG 192355Z AUTO 30003KT 10SM CLR 30/20 A3000 RMK AO2